»·PEaware :: RNGR812 KNGP-KNGP

RNGR812 :: KNGP-KNGP

FLIGHT INFORMATION

Flight Status: Arrived
Operator: Unknown
More flights by this operator :: More flights under this callsign
Pilot: USN Avenger (31125)
Aircraft: BEECH AIRCRAFT T-6A TEXAN
(TEX2)
More flights by this aircraft type
Origin: KNGP Corpus Christi NAS/Truax
United States
Destination: KNGP Corpus Christi NAS/Truax
United States
More flights between these airports :: More routes between these airports
Route: MUSTANG KRKP
File this flight plan on PilotEdge
Remarks: RWY 18 PLEASE
Altitude:
(Current/Filed)
5,500ft
Speed:
(Current/Filed)
240kts
Departed: 15-Nov-23 07:46 AM
Arrived: 15-Nov-23 08:41 AM
Distance/Time
Traveled:
1nm/0:55
Distance/Time
To Go:
Arrived

Flight Plot

Page will automatically refresh every two minutes.

Flight plan parsing failed; only flown route is shown


Map Options




Map Legend


Flown Route
Filed Route
Departure Airport
Arrival Airport
Navaid (VOR, NDB)
Fix

Horizontal Profiles

Position Reports

Time Latitude Longitude Heading Altitude Ground
Speed
15-Nov-23 07:39 27.698524 -97.284277 159 22ft 0kts
15-Nov-23 07:40 27.698523 -97.284276 159 22ft 0kts
15-Nov-23 07:41 27.698608 -97.285633 337 22ft 9kts
15-Nov-23 07:42 27.698165 -97.287941 226 22ft 17kts
15-Nov-23 07:43 27.695807 -97.290964 228 22ft 0kts
15-Nov-23 07:44 27.695710 -97.291082 227 22ft 8kts
15-Nov-23 07:45 27.691666 -97.287750 134 23ft 101kts
15-Nov-23 07:46 27.662591 -97.246165 125 498ft 205kts
15-Nov-23 07:47 27.640382 -97.190438 107 2376ft 195kts
15-Nov-23 07:48 27.672151 -97.147529 34 4813ft 192kts
15-Nov-23 07:49 27.724313 -97.112072 27 5547ft 253kts
15-Nov-23 07:50 27.786767 -97.069374 34 5540ft 263kts
15-Nov-23 07:51 27.843599 -97.019416 33 5506ft 257kts
15-Nov-23 07:52 27.894391 -96.982430 18 8457ft 201kts
15-Nov-23 07:53 27.940021 -96.979719 37 10765ft 192kts
15-Nov-23 07:54 27.944673 -96.999672 212 11047ft 245kts
15-Nov-23 07:55 27.944893 -96.986660 35 10579ft 255kts
15-Nov-23 07:56 27.980300 -97.015001 230 8975ft 218kts
15-Nov-23 07:57 27.938242 -96.995438 85 7194ft 208kts
15-Nov-23 07:58 27.982761 -96.984708 347 5521ft 204kts
15-Nov-23 07:59 28.041458 -96.991719 355 3754ft 215kts
15-Nov-23 08:00 28.099649 -96.999254 349 2497ft 205kts
15-Nov-23 08:01 28.133388 -97.034066 200 1023ft 194kts
15-Nov-23 08:02 28.078860 -97.043072 193 1019ft 198kts
15-Nov-23 08:03 28.098367 -97.047543 39 709ft 115kts
15-Nov-23 08:04 28.078463 -97.041650 190 170ft 122kts
15-Nov-23 08:05 28.078599 -97.059670 18 787ft 130kts
15-Nov-23 08:06 28.100014 -97.038782 135 328ft 117kts
15-Nov-23 08:07 28.069853 -97.044117 207 397ft 121kts
15-Nov-23 08:08 28.087357 -97.054459 21 774ft 121kts
15-Nov-23 08:09 28.092770 -97.038655 193 75ft 123kts
15-Nov-23 08:10 28.061522 -97.048233 236 680ft 123kts
15-Nov-23 08:11 28.081873 -97.054190 27 769ft 122kts
15-Nov-23 08:12 28.095008 -97.037072 194 192ft 125kts
15-Nov-23 08:13 28.071961 -97.056390 329 791ft 124kts
15-Nov-23 08:14 28.101006 -97.043698 92 486ft 111kts
15-Nov-23 08:15 28.075365 -97.042373 192 287ft 121kts
15-Nov-23 08:16 28.078972 -97.058441 16 809ft 123kts
15-Nov-23 08:17 28.097849 -97.039191 147 248ft 109kts
15-Nov-23 08:18 28.068369 -97.045463 225 534ft 128kts
15-Nov-23 08:19 28.091301 -97.053761 18 753ft 130kts
15-Nov-23 08:20 28.132365 -97.033472 72 1598ft 173kts
15-Nov-23 08:21 28.089468 -97.000149 194 1524ft 242kts
15-Nov-23 08:22 28.025837 -97.026322 202 1488ft 244kts
15-Nov-23 08:23 27.970277 -97.069486 212 1077ft 240kts
15-Nov-23 08:24 27.914372 -97.109467 210 1059ft 239kts
15-Nov-23 08:25 27.855915 -97.146049 210 1014ft 242kts
15-Nov-23 08:26 27.792966 -97.168607 180 1006ft 244kts
15-Nov-23 08:27 27.743540 -97.188441 258 1054ft 192kts
15-Nov-23 08:28 27.733304 -97.249983 257 1055ft 203kts
15-Nov-23 08:29 27.713275 -97.305175 187 1065ft 192kts
15-Nov-23 08:30 27.674812 -97.262871 129 1099ft 178kts
15-Nov-23 08:31 27.686629 -97.258733 311 763ft 124kts
15-Nov-23 08:32 27.708228 -97.289859 300 736ft 119kts
15-Nov-23 08:33 27.687753 -97.283253 133 85ft 117kts
15-Nov-23 08:34 27.684782 -97.260496 311 784ft 126kts
15-Nov-23 08:35 27.706496 -97.290801 289 685ft 115kts
15-Nov-23 08:36 27.688013 -97.283599 134 56ft 110kts
15-Nov-23 08:37 27.675987 -97.253239 1 770ft 130kts
15-Nov-23 08:38 27.699680 -97.280279 311 822ft 122kts
15-Nov-23 08:39 27.694714 -97.291138 135 36ft 97kts
15-Nov-23 08:40 27.687285 -97.281946 57 22ft 10kts

Navigation Log

Ident Type
Flight plan parsing failed, navigation log unavailable